sensor_id;sensor_type;location;lat;lon;timestamp;pressure;altitude;pressure_sealevel;temperature;humidity
83118;BME280;73000;51.784;4.660;2023-11-19T00:02:07;101045.00;;;13.95;88.25
83118;BME280;73000;51.784;4.660;2023-11-19T00:04:36;101045.84;;;13.96;88.08
83118;BME280;73000;51.784;4.660;2023-11-19T00:07:01;101031.28;;;13.85;88.23
83118;BME280;73000;51.784;4.660;2023-11-19T00:09:29;101031.63;;;13.97;88.09
83118;BME280;73000;51.784;4.660;2023-11-19T00:11:54;101028.03;;;13.97;88.39
83118;BME280;73000;51.784;4.660;2023-11-19T00:14:20;101028.19;;;13.87;88.20
83118;BME280;73000;51.784;4.660;2023-11-19T00:16:45;101023.38;;;13.92;87.94
83118;BME280;73000;51.784;4.660;2023-11-19T00:19:11;101026.44;;;13.91;87.82
83118;BME280;73000;51.784;4.660;2023-11-19T00:21:36;101024.47;;;13.78;88.23
83118;BME280;73000;51.784;4.660;2023-11-19T00:24:02;101021.09;;;13.81;88.21
83118;BME280;73000;51.784;4.660;2023-11-19T00:26:27;101048.28;;;13.84;87.93
83118;BME280;73000;51.784;4.660;2023-11-19T00:28:52;101037.84;;;13.76;88.68
83118;BME280;73000;51.784;4.660;2023-11-19T00:31:18;101045.81;;;13.82;87.89
83118;BME280;73000;51.784;4.660;2023-11-19T00:33:43;101035.72;;;13.73;88.08
83118;BME280;73000;51.784;4.660;2023-11-19T00:36:09;101046.72;;;13.78;88.00
83118;BME280;73000;51.784;4.660;2023-11-19T00:38:34;101031.06;;;13.68;88.50
83118;BME280;73000;51.784;4.660;2023-11-19T00:40:59;101043.94;;;13.78;88.05
83118;BME280;73000;51.784;4.660;2023-11-19T00:43:24;101048.66;;;13.77;87.91
83118;BME280;73000;51.784;4.660;2023-11-19T00:45:51;101027.72;;;13.66;87.90
83118;BME280;73000;51.784;4.660;2023-11-19T00:48:16;101030.22;;;13.68;87.99
83118;BME280;73000;51.784;4.660;2023-11-19T00:50:42;101040.59;;;13.62;88.25
83118;BME280;73000;51.784;4.660;2023-11-19T00:53:09;101041.03;;;13.69;87.99
83118;BME280;73000;51.784;4.660;2023-11-19T00:55:35;101049.47;;;13.64;87.98
83118;BME280;73000;51.784;4.660;2023-11-19T00:58:00;101043.75;;;13.74;87.23
83118;BME280;73000;51.784;4.660;2023-11-19T01:00:25;101028.41;;;13.77;87.11
83118;BME280;73000;51.784;4.660;2023-11-19T01:02:52;101005.59;;;13.61;87.07
83118;BME280;73000;51.784;4.660;2023-11-19T01:05:17;101008.50;;;13.70;86.98
83118;BME280;73000;51.784;4.660;2023-11-19T01:07:46;101011.19;;;13.75;86.90
83118;BME280;73000;51.784;4.660;2023-11-19T01:10:12;100986.38;;;13.65;86.64
83118;BME280;73000;51.784;4.660;2023-11-19T01:12:38;101003.34;;;13.63;86.69
83118;BME280;73000;51.784;4.660;2023-11-19T01:15:05;101016.72;;;13.61;86.59
83118;BME280;73000;51.784;4.660;2023-11-19T01:17:30;101003.97;;;13.60;86.36
83118;BME280;73000;51.784;4.660;2023-11-19T01:19:57;101013.50;;;13.54;86.63
83118;BME280;73000;51.784;4.660;2023-11-19T01:22:22;101007.22;;;13.49;86.47
83118;BME280;73000;51.784;4.660;2023-11-19T01:24:48;101001.34;;;13.50;86.18
83118;BME280;73000;51.784;4.660;2023-11-19T01:27:13;101009.78;;;13.45;86.13
83118;BME280;73000;51.784;4.660;2023-11-19T01:29:39;101024.38;;;13.37;86.17
83118;BME280;73000;51.784;4.660;2023-11-19T01:32:04;101028.63;;;13.48;85.87
83118;BME280;73000;51.784;4.660;2023-11-19T01:34:30;101004.38;;;13.35;85.72
83118;BME280;73000;51.784;4.660;2023-11-19T01:36:55;100997.28;;;13.29;85.94
83118;BME280;73000;51.784;4.660;2023-11-19T01:39:21;101011.06;;;13.34;85.67
83118;BME280;73000;51.784;4.660;2023-11-19T01:41:46;100999.97;;;13.34;86.04
83118;BME280;73000;51.784;4.660;2023-11-19T01:44:11;100995.69;;;13.23;86.08
83118;BME280;73000;51.784;4.660;2023-11-19T01:46:42;100993.81;;;13.19;85.69
83118;BME280;73000;51.784;4.660;2023-11-19T01:49:09;101005.03;;;13.14;86.04
83118;BME280;73000;51.784;4.660;2023-11-19T01:51:34;100997.06;;;13.07;85.81
83118;BME280;73000;51.784;4.660;2023-11-19T01:54:01;100988.50;;;13.04;85.69
83118;BME280;73000;51.784;4.660;2023-11-19T01:56:27;101003.13;;;13.09;85.88
83118;BME280;73000;51.784;4.660;2023-11-19T01:58:53;100999.63;;;13.04;85.90
83118;BME280;73000;51.784;4.660;2023-11-19T02:01:20;101006.59;;;13.01;85.70
83118;BME280;73000;51.784;4.660;2023-11-19T02:03:45;101004.47;;;12.93;86.11
83118;BME280;73000;51.784;4.660;2023-11-19T02:06:12;101024.44;;;12.95;86.68
83118;BME280;73000;51.784;4.660;2023-11-19T02:08:37;101012.16;;;13.01;86.02
83118;BME280;73000;51.784;4.660;2023-11-19T02:11:04;101019.97;;;12.99;85.76
83118;BME280;73000;51.784;4.660;2023-11-19T02:13:31;101019.78;;;12.91;86.30
83118;BME280;73000;51.784;4.660;2023-11-19T02:15:57;101011.59;;;12.81;86.01
83118;BME280;73000;51.784;4.660;2023-11-19T02:18:24;101038.16;;;12.87;86.50
83118;BME280;73000;51.784;4.660;2023-11-19T02:20:56;101010.84;;;12.75;86.20
83118;BME280;73000;51.784;4.660;2023-11-19T02:23:22;101011.97;;;12.74;86.11
83118;BME280;73000;51.784;4.660;2023-11-19T02:26:07;101015.50;;;12.80;86.28
83118;BME280;73000;51.784;4.660;2023-11-19T02:28:35;101019.69;;;12.77;86.08
83118;BME280;73000;51.784;4.660;2023-11-19T02:31:01;101005.44;;;12.65;86.45
83118;BME280;73000;51.784;4.660;2023-11-19T02:33:26;101028.69;;;12.69;86.71
83118;BME280;73000;51.784;4.660;2023-11-19T02:35:51;101026.25;;;12.63;86.45
83118;BME280;73000;51.784;4.660;2023-11-19T02:38:17;101015.63;;;12.70;87.01
83118;BME280;73000;51.784;4.660;2023-11-19T02:40:42;101013.41;;;12.72;86.03
83118;BME280;73000;51.784;4.660;2023-11-19T02:43:07;101005.50;;;12.60;86.03
83118;BME280;73000;51.784;4.660;2023-11-19T02:45:33;101015.50;;;12.61;86.04
83118;BME280;73000;51.784;4.660;2023-11-19T02:47:59;101013.00;;;12.60;85.86
83118;BME280;73000;51.784;4.660;2023-11-19T02:50:26;101024.88;;;12.65;86.20
83118;BME280;73000;51.784;4.660;2023-11-19T02:52:55;101015.50;;;12.61;86.21
83118;BME280;73000;51.784;4.660;2023-11-19T02:55:24;101003.84;;;12.59;86.02
83118;BME280;73000;51.784;4.660;2023-11-19T02:57:50;101021.94;;;12.57;85.60
83118;BME280;73000;51.784;4.660;2023-11-19T03:00:17;101030.47;;;12.60;85.76
83118;BME280;73000;51.784;4.660;2023-11-19T03:02:44;101009.31;;;12.46;85.76
83118;BME280;73000;51.784;4.660;2023-11-19T03:05:19;101009.59;;;12.44;85.55
83118;BME280;73000;51.784;4.660;2023-11-19T03:07:45;101010.19;;;12.41;85.45
83118;BME280;73000;51.784;4.660;2023-11-19T03:10:10;101016.56;;;12.42;85.33
83118;BME280;73000;51.784;4.660;2023-11-19T03:12:40;101007.41;;;12.41;85.42
83118;BME280;73000;51.784;4.660;2023-11-19T03:15:06;101008.63;;;12.35;85.03
83118;BME280;73000;51.784;4.660;2023-11-19T03:17:32;101014.31;;;12.44;85.13
83118;BME280;73000;51.784;4.660;2023-11-19T03:19:57;101012.97;;;12.41;85.18
83118;BME280;73000;51.784;4.660;2023-11-19T03:22:23;100989.25;;;12.30;84.80
83118;BME280;73000;51.784;4.660;2023-11-19T03:24:50;101003.13;;;12.30;85.42
83118;BME280;73000;51.784;4.660;2023-11-19T03:27:16;101016.97;;;12.30;85.11
83118;BME280;73000;51.784;4.660;2023-11-19T03:29:41;101000.13;;;12.27;84.71
83118;BME280;73000;51.784;4.660;2023-11-19T03:32:06;100982.53;;;12.13;85.12
83118;BME280;73000;51.784;4.660;2023-11-19T03:34:32;100983.66;;;12.12;84.99
83118;BME280;73000;51.784;4.660;2023-11-19T03:36:57;100991.63;;;12.18;84.90
83118;BME280;73000;51.784;4.660;2023-11-19T03:39:22;100991.69;;;12.13;85.39
83118;BME280;73000;51.784;4.660;2023-11-19T03:41:50;101001.66;;;12.14;85.45
83118;BME280;73000;51.784;4.660;2023-11-19T03:44:15;100987.59;;;12.06;85.59
83118;BME280;73000;51.784;4.660;2023-11-19T03:46:40;101010.53;;;12.16;84.88
83118;BME280;73000;51.784;4.660;2023-11-19T03:49:06;100996.47;;;12.08;85.78
83118;BME280;73000;51.784;4.660;2023-11-19T03:51:32;100999.47;;;12.11;85.77
83118;BME280;73000;51.784;4.660;2023-11-19T03:53:57;100994.22;;;12.10;85.45
83118;BME280;73000;51.784;4.660;2023-11-19T03:56:22;101012.09;;;12.22;85.03
83118;BME280;73000;51.784;4.660;2023-11-19T03:58:48;101010.75;;;12.20;85.07
83118;BME280;73000;51.784;4.660;2023-11-19T04:01:13;101003.56;;;12.19;85.37
83118;BME280;73000;51.784;4.660;2023-11-19T04:03:38;101008.63;;;12.12;84.49
83118;BME280;73000;51.784;4.660;2023-11-19T04:06:04;101021.06;;;12.14;84.78
83118;BME280;73000;51.784;4.660;2023-11-19T04:08:30;101006.72;;;12.07;84.78
83118;BME280;73000;51.784;4.660;2023-11-19T04:10:55;101007.38;;;11.99;84.75
83118;BME280;73000;51.784;4.660;2023-11-19T04:13:20;101017.22;;;12.10;85.71
83118;BME280;73000;51.784;4.660;2023-11-19T04:15:46;101028.31;;;12.10;84.73
83118;BME280;73000;51.784;4.660;2023-11-19T04:18:11;100993.50;;;11.99;84.98
83118;BME280;73000;51.784;4.660;2023-11-19T04:20:36;101008.91;;;12.10;84.64
83118;BME280;73000;51.784;4.660;2023-11-19T04:23:02;101017.81;;;12.07;85.22
83118;BME280;73000;51.784;4.660;2023-11-19T04:25:27;101009.78;;;12.06;84.90
83118;BME280;73000;51.784;4.660;2023-11-19T04:27:52;100984.22;;;11.90;84.13
83118;BME280;73000;51.784;4.660;2023-11-19T04:30:18;101012.56;;;12.06;84.74
83118;BME280;73000;51.784;4.660;2023-11-19T04:32:43;101013.47;;;12.01;84.29
83118;BME280;73000;51.784;4.660;2023-11-19T04:35:09;101019.94;;;11.92;84.98
83118;BME280;73000;51.784;4.660;2023-11-19T04:37:34;101027.13;;;11.93;84.26
83118;BME280;73000;51.784;4.660;2023-11-19T04:40:00;101012.41;;;11.97;84.31
83118;BME280;73000;51.784;4.660;2023-11-19T04:42:25;101036.94;;;12.09;83.84
83118;BME280;73000;51.784;4.660;2023-11-19T04:44:50;101017.09;;;11.97;83.63
83118;BME280;73000;51.784;4.660;2023-11-19T04:47:16;101045.53;;;12.07;84.35
83118;BME280;73000;51.784;4.660;2023-11-19T04:49:41;101040.28;;;12.06;83.70
83118;BME280;73000;51.784;4.660;2023-11-19T04:52:09;101026.56;;;11.96;84.11
83118;BME280;73000;51.784;4.660;2023-11-19T04:54:35;101026.56;;;11.96;83.73
83118;BME280;73000;51.784;4.660;2023-11-19T04:57:00;101043.41;;;11.99;83.58
83118;BME280;73000;51.784;4.660;2023-11-19T04:59:25;101014.91;;;11.94;83.64
83118;BME280;73000;51.784;4.660;2023-11-19T05:01:52;101016.81;;;11.98;83.51
83118;BME280;73000;51.784;4.660;2023-11-19T05:04:17;101032.31;;;11.99;84.58
83118;BME280;73000;51.784;4.660;2023-11-19T05:06:43;101032.88;;;12.01;83.91
83118;BME280;73000;51.784;4.660;2023-11-19T05:09:09;101035.63;;;12.01;84.00
83118;BME280;73000;51.784;4.660;2023-11-19T05:11:35;101040.63;;;11.99;84.27
83118;BME280;73000;51.784;4.660;2023-11-19T05:14:02;101043.69;;;11.98;84.46
83118;BME280;73000;51.784;4.660;2023-11-19T05:16:29;101040.16;;;11.92;84.13
83118;BME280;73000;51.784;4.660;2023-11-19T05:18:54;101029.13;;;11.87;84.56
83118;BME280;73000;51.784;4.660;2023-11-19T05:21:19;101025.81;;;11.85;84.75
83118;BME280;73000;51.784;4.660;2023-11-19T05:23:45;101031.06;;;11.87;85.06
83118;BME280;73000;51.784;4.660;2023-11-19T05:26:20;101037.38;;;11.92;84.90
83118;BME280;73000;51.784;4.660;2023-11-19T05:28:46;101034.31;;;11.94;84.87
83118;BME280;73000;51.784;4.660;2023-11-19T05:31:11;101042.41;;;11.90;84.84
83118;BME280;73000;51.784;4.660;2023-11-19T05:33:37;101052.00;;;11.98;84.42
83118;BME280;73000;51.784;4.660;2023-11-19T05:36:02;101052.88;;;11.93;85.16
83118;BME280;73000;51.784;4.660;2023-11-19T05:38:29;101050.44;;;11.92;85.12
83118;BME280;73000;51.784;4.660;2023-11-19T05:40:54;101041.06;;;11.88;84.83
83118;BME280;73000;51.784;4.660;2023-11-19T05:43:20;101023.16;;;11.75;85.30
83118;BME280;73000;51.784;4.660;2023-11-19T05:45:46;101035.50;;;11.88;85.06
83118;BME280;73000;51.784;4.660;2023-11-19T05:48:12;101040.50;;;11.86;84.60
83118;BME280;73000;51.784;4.660;2023-11-19T05:50:38;101041.97;;;11.78;84.99
83118;BME280;73000;51.784;4.660;2023-11-19T05:53:03;101033.34;;;11.80;84.46
83118;BME280;73000;51.784;4.660;2023-11-19T05:55:33;101031.63;;;11.84;83.91
83118;BME280;73000;51.784;4.660;2023-11-19T05:57:59;101027.03;;;11.74;84.52
83118;BME280;73000;51.784;4.660;2023-11-19T06:00:24;101020.97;;;11.72;84.36
83118;BME280;73000;51.784;4.660;2023-11-19T06:02:51;101014.78;;;11.80;84.92
83118;BME280;73000;51.784;4.660;2023-11-19T06:05:17;101015.94;;;11.74;84.77
83118;BME280;73000;51.784;4.660;2023-11-19T06:07:43;101009.53;;;11.79;84.98
83118;BME280;73000;51.784;4.660;2023-11-19T06:10:09;101001.03;;;11.70;84.42
83118;BME280;73000;51.784;4.660;2023-11-19T06:12:35;101002.22;;;11.64;85.07
83118;BME280;73000;51.784;4.660;2023-11-19T06:15:04;101003.84;;;11.65;84.53
83118;BME280;73000;51.784;4.660;2023-11-19T06:17:30;101013.22;;;11.69;84.91
83118;BME280;73000;51.784;4.660;2023-11-19T06:19:55;101009.69;;;11.64;85.20
83118;BME280;73000;51.784;4.660;2023-11-19T06:22:21;100995.06;;;11.53;85.44
83118;BME280;73000;51.784;4.660;2023-11-19T06:24:46;101006.72;;;11.50;85.17
83118;BME280;73000;51.784;4.660;2023-11-19T06:27:11;101003.09;;;11.55;84.92
83118;BME280;73000;51.784;4.660;2023-11-19T06:29:36;101006.72;;;11.50;84.93
83118;BME280;73000;51.784;4.660;2023-11-19T06:32:02;101027.13;;;11.59;84.90
83118;BME280;73000;51.784;4.660;2023-11-19T06:34:27;101024.97;;;11.56;85.09
83118;BME280;73000;51.784;4.660;2023-11-19T06:36:53;101008.16;;;11.48;84.91
83118;BME280;73000;51.784;4.660;2023-11-19T06:39:18;101027.19;;;11.54;85.06
83118;BME280;73000;51.784;4.660;2023-11-19T06:41:45;101010.97;;;11.43;85.44
83118;BME280;73000;51.784;4.660;2023-11-19T06:44:11;101026.69;;;11.47;84.07
83118;BME280;73000;51.784;4.660;2023-11-19T06:46:37;101047.75;;;11.48;85.01
83118;BME280;73000;51.784;4.660;2023-11-19T06:49:02;101042.25;;;11.43;84.99
83118;BME280;73000;51.784;4.660;2023-11-19T06:51:27;101057.13;;;11.52;85.03
83118;BME280;73000;51.784;4.660;2023-11-19T06:53:53;101054.97;;;11.44;84.60
83118;BME280;73000;51.784;4.660;2023-11-19T06:56:22;101082.09;;;11.47;83.75
83118;BME280;73000;51.784;4.660;2023-11-19T06:58:48;101063.59;;;11.38;84.84
83118;BME280;73000;51.784;4.660;2023-11-19T07:01:15;101061.63;;;11.43;84.85
83118;BME280;73000;51.784;4.660;2023-11-19T07:03:41;101061.06;;;11.46;85.33
83118;BME280;73000;51.784;4.660;2023-11-19T07:06:06;101083.66;;;11.58;84.91
83118;BME280;73000;51.784;4.660;2023-11-19T07:08:31;101083.94;;;11.57;83.86
83118;BME280;73000;51.784;4.660;2023-11-19T07:10:56;101079.06;;;11.44;84.16
83118;BME280;73000;51.784;4.660;2023-11-19T07:13:22;101075.75;;;11.42;83.86
83118;BME280;73000;51.784;4.660;2023-11-19T07:15:47;101064.09;;;11.45;84.21
83118;BME280;73000;51.784;4.660;2023-11-19T07:18:12;101070.78;;;11.44;84.61
83118;BME280;73000;51.784;4.660;2023-11-19T07:20:38;101068.72;;;11.54;84.98
83118;BME280;73000;51.784;4.660;2023-11-19T07:23:05;101073.69;;;11.57;84.01
83118;BME280;73000;51.784;4.660;2023-11-19T07:25:31;101067.59;;;11.55;84.19
83118;BME280;73000;51.784;4.660;2023-11-19T07:27:56;101065.19;;;11.49;84.21
83118;BME280;73000;51.784;4.660;2023-11-19T07:30:22;101069.59;;;11.50;84.20
83118;BME280;73000;51.784;4.660;2023-11-19T07:32:47;101064.38;;;11.48;83.68
83118;BME280;73000;51.784;4.660;2023-11-19T07:35:13;101070.38;;;11.55;83.37
83118;BME280;73000;51.784;4.660;2023-11-19T07:37:39;101084.78;;;11.57;83.64
83118;BME280;73000;51.784;4.660;2023-11-19T07:40:04;101078.66;;;11.60;84.13
83118;BME280;73000;51.784;4.660;2023-11-19T07:42:30;101080.28;;;11.71;83.35
83118;BME280;73000;51.784;4.660;2023-11-19T07:44:56;101057.03;;;11.67;83.90
83118;BME280;73000;51.784;4.660;2023-11-19T07:47:22;101067.00;;;11.68;83.40
83118;BME280;73000;51.784;4.660;2023-11-19T07:49:48;101082.94;;;11.81;83.42
83118;BME280;73000;51.784;4.660;2023-11-19T07:52:13;101066.72;;;11.65;83.29
83118;BME280;73000;51.784;4.660;2023-11-19T07:54:39;101076.88;;;11.79;83.48
83118;BME280;73000;51.784;4.660;2023-11-19T07:57:04;101088.47;;;11.81;83.15
83118;BME280;73000;51.784;4.660;2023-11-19T07:59:29;101082.63;;;11.88;83.85
83118;BME280;73000;51.784;4.660;2023-11-19T08:01:54;101086.75;;;11.90;83.80
83118;BME280;73000;51.784;4.660;2023-11-19T08:04:20;101081.97;;;11.96;83.14
83118;BME280;73000;51.784;4.660;2023-11-19T08:06:45;101073.38;;;11.97;82.66
83118;BME280;73000;51.784;4.660;2023-11-19T08:09:11;101092.84;;;12.16;82.65
83118;BME280;73000;51.784;4.660;2023-11-19T08:11:39;101090.38;;;12.14;82.01
83118;BME280;73000;51.784;4.660;2023-11-19T08:14:05;101084.66;;;12.29;82.44
83118;BME280;73000;51.784;4.660;2023-11-19T08:16:30;101075.84;;;12.27;81.87
83118;BME280;73000;51.784;4.660;2023-11-19T08:18:55;101069.09;;;12.33;81.59
83118;BME280;73000;51.784;4.660;2023-11-19T08:21:23;101087.34;;;12.39;81.50
83118;BME280;73000;51.784;4.660;2023-11-19T08:23:48;101101.06;;;12.49;81.12
83118;BME280;73000;51.784;4.660;2023-11-19T08:26:14;101095.47;;;12.54;81.02
83118;BME280;73000;51.784;4.660;2023-11-19T08:28:40;101096.59;;;12.53;81.17
83118;BME280;73000;51.784;4.660;2023-11-19T08:31:05;101088.59;;;12.52;80.94
83118;BME280;73000;51.784;4.660;2023-11-19T08:33:31;101091.34;;;12.52;79.92
83118;BME280;73000;51.784;4.660;2023-11-19T08:35:56;101112.34;;;12.58;80.63
83118;BME280;73000;51.784;4.660;2023-11-19T08:38:22;101096.59;;;12.53;79.93
83118;BME280;73000;51.784;4.660;2023-11-19T08:40:47;101089.56;;;12.61;80.01
83118;BME280;73000;51.784;4.660;2023-11-19T08:43:13;101090.44;;;12.56;80.13
83118;BME280;73000;51.784;4.660;2023-11-19T08:45:38;101098.06;;;12.69;80.10
83118;BME280;73000;51.784;4.660;2023-11-19T08:48:03;101100.22;;;12.72;79.95
83118;BME280;73000;51.784;4.660;2023-11-19T08:50:29;101097.16;;;12.74;79.24
83118;BME280;73000;51.784;4.660;2023-11-19T08:52:54;101087.78;;;12.70;79.45
83118;BME280;73000;51.784;4.660;2023-11-19T08:55:19;101081.81;;;12.81;79.57
83118;BME280;73000;51.784;4.660;2023-11-19T08:57:45;101092.25;;;12.89;78.44
83118;BME280;73000;51.784;4.660;2023-11-19T09:00:10;101079.50;;;12.88;78.23
83118;BME280;73000;51.784;4.660;2023-11-19T09:02:39;101085.19;;;13.02;78.20
83118;BME280;73000;51.784;4.660;2023-11-19T09:05:05;101088.25;;;13.19;77.49
83118;BME280;73000;51.784;4.660;2023-11-19T09:07:31;101091.84;;;13.19;76.58
83118;BME280;73000;51.784;4.660;2023-11-19T09:09:56;101082.56;;;13.10;78.18
83118;BME280;73000;51.784;4.660;2023-11-19T09:12:22;101080.66;;;13.06;77.54
83118;BME280;73000;51.784;4.660;2023-11-19T09:14:47;101093.56;;;13.34;77.36
83118;BME280;73000;51.784;4.660;2023-11-19T09:17:13;101080.06;;;13.27;77.04
83118;BME280;73000;51.784;4.660;2023-11-19T09:19:38;101091.63;;;13.34;77.47
83118;BME280;73000;51.784;4.660;2023-11-19T09:22:04;101091.09;;;13.32;77.49
83118;BME280;73000;51.784;4.660;2023-11-19T09:24:29;101091.03;;;13.37;77.38
83118;BME280;73000;51.784;4.660;2023-11-19T09:26:54;101092.84;;;13.47;77.31
83118;BME280;73000;51.784;4.660;2023-11-19T09:29:21;101078.19;;;13.41;76.53
83118;BME280;73000;51.784;4.660;2023-11-19T09:31:46;101073.03;;;13.35;77.38
83118;BME280;73000;51.784;4.660;2023-11-19T09:34:12;101089.66;;;13.53;77.01
83118;BME280;73000;51.784;4.660;2023-11-19T09:36:37;101092.09;;;13.41;77.10
83118;BME280;73000;51.784;4.660;2023-11-19T09:39:02;101081.03;;;13.55;76.92
83118;BME280;73000;51.784;4.660;2023-11-19T09:41:30;101086.34;;;13.51;76.44
83118;BME280;73000;51.784;4.660;2023-11-19T09:43:55;101076.34;;;13.69;76.64
83118;BME280;73000;51.784;4.660;2023-11-19T09:46:22;101085.84;;;13.81;76.12
83118;BME280;73000;51.784;4.660;2023-11-19T09:48:52;101070.28;;;14.12;75.31
83118;BME280;73000;51.784;4.660;2023-11-19T09:51:19;101066.00;;;14.60;73.58
83118;BME280;73000;51.784;4.660;2023-11-19T09:53:45;101089.97;;;15.11;71.32
83118;BME280;73000;51.784;4.660;2023-11-19T09:56:10;101088.34;;;15.45;69.58
83118;BME280;73000;51.784;4.660;2023-11-19T09:58:37;101081.94;;;16.11;68.89
83118;BME280;73000;51.784;4.660;2023-11-19T10:01:02;101095.81;;;16.55;66.40
83118;BME280;73000;51.784;4.660;2023-11-19T10:03:36;101066.50;;;16.74;65.56
83118;BME280;73000;51.784;4.660;2023-11-19T10:06:06;101079.19;;;17.06;65.04
83118;BME280;73000;51.784;4.660;2023-11-19T10:08:32;101091.56;;;17.13;64.65
83118;BME280;73000;51.784;4.660;2023-11-19T10:10:57;101086.00;;;17.22;64.20
83118;BME280;73000;51.784;4.660;2023-11-19T10:13:28;101078.16;;;17.41;63.38
83118;BME280;73000;51.784;4.660;2023-11-19T10:15:55;101092.13;;;17.66;62.50
83118;BME280;73000;51.784;4.660;2023-11-19T10:18:24;101092.63;;;17.68;61.36
83118;BME280;73000;51.784;4.660;2023-11-19T10:20:50;101088.16;;;17.93;62.13
83118;BME280;73000;51.784;4.660;2023-11-19T10:23:15;101081.72;;;18.01;61.16
83118;BME280;73000;51.784;4.660;2023-11-19T10:25:40;101080.38;;;18.07;60.90
83118;BME280;73000;51.784;4.660;2023-11-19T10:28:06;101071.50;;;17.88;60.99
83118;BME280;73000;51.784;4.660;2023-11-19T10:30:31;101087.66;;;17.91;60.62
83118;BME280;73000;51.784;4.660;2023-11-19T10:33:02;101086.53;;;17.75;61.63
83118;BME280;73000;51.784;4.660;2023-11-19T10:35:28;101087.13;;;17.97;61.67
83118;BME280;73000;51.784;4.660;2023-11-19T10:37:59;101082.38;;;17.81;61.17
83118;BME280;73000;51.784;4.660;2023-11-19T10:40:37;101070.53;;;17.84;60.59
83118;BME280;73000;51.784;4.660;2023-11-19T10:43:03;101077.81;;;17.59;61.62
83118;BME280;73000;51.784;4.660;2023-11-19T10:45:29;101063.97;;;17.29;62.53
83118;BME280;73000;51.784;4.660;2023-11-19T10:47:54;101076.28;;;17.36;62.33
83118;BME280;73000;51.784;4.660;2023-11-19T10:50:20;101065.75;;;17.16;63.25
83118;BME280;73000;51.784;4.660;2023-11-19T10:52:47;101080.06;;;17.15;63.39
83118;BME280;73000;51.784;4.660;2023-11-19T10:55:15;101072.75;;;16.88;64.30
83118;BME280;73000;51.784;4.660;2023-11-19T10:57:46;101077.13;;;16.55;65.89
83118;BME280;73000;51.784;4.660;2023-11-19T11:00:13;101059.25;;;16.34;66.08
83118;BME280;73000;51.784;4.660;2023-11-19T11:02:45;101068.19;;;16.14;66.76
83118;BME280;73000;51.784;4.660;2023-11-19T11:05:14;101067.66;;;15.82;67.60
83118;BME280;73000;51.784;4.660;2023-11-19T11:07:44;101067.19;;;15.44;68.33
83118;BME280;73000;51.784;4.660;2023-11-19T11:10:09;101076.13;;;15.77;68.20
83118;BME280;73000;51.784;4.660;2023-11-19T11:12:37;101073.19;;;16.04;67.11
83118;BME280;73000;51.784;4.660;2023-11-19T11:15:07;101060.34;;;16.25;66.56
83118;BME280;73000;51.784;4.660;2023-11-19T11:17:33;101062.00;;;16.56;65.80
83118;BME280;73000;51.784;4.660;2023-11-19T11:19:59;101058.72;;;16.63;65.18
83118;BME280;73000;51.784;4.660;2023-11-19T11:22:25;101069.53;;;16.56;65.77
83118;BME280;73000;51.784;4.660;2023-11-19T11:25:16;101055.97;;;16.71;65.46
83118;BME280;73000;51.784;4.660;2023-11-19T11:27:57;101065.09;;;16.55;65.88
83118;BME280;73000;51.784;4.660;2023-11-19T11:37:10;101052.72;;;16.08;67.68
83118;BME280;73000;51.784;4.660;2023-11-19T11:39:40;101045.84;;;15.84;68.55
83118;BME280;73000;51.784;4.660;2023-11-19T11:45:06;101046.53;;;15.45;70.91
83118;BME280;73000;51.784;4.660;2023-11-19T11:50:10;101040.16;;;15.45;70.60
83118;BME280;73000;51.784;4.660;2023-11-19T11:55:34;101037.41;;;15.31;70.75
83118;BME280;73000;51.784;4.660;2023-11-19T11:58:00;101028.84;;;15.28;71.03
83118;BME280;73000;51.784;4.660;2023-11-19T12:00:39;101045.41;;;15.11;71.72
83118;BME280;73000;51.784;4.660;2023-11-19T12:03:07;101034.63;;;14.96;72.50
83118;BME280;73000;51.784;4.660;2023-11-19T12:05:33;101023.81;;;14.81;72.97
83118;BME280;73000;51.784;4.660;2023-11-19T12:08:03;101028.53;;;14.94;72.94
83118;BME280;73000;51.784;4.660;2023-11-19T12:10:32;101016.25;;;14.95;72.88
83118;BME280;73000;51.784;4.660;2023-11-19T12:13:01;101015.94;;;14.96;73.05
83118;BME280;73000;51.784;4.660;2023-11-19T12:15:27;101020.06;;;14.99;73.36
83118;BME280;73000;51.784;4.660;2023-11-19T12:17:53;101008.94;;;14.99;72.67
83118;BME280;73000;51.784;4.660;2023-11-19T12:20:33;101004.63;;;14.79;72.94
83118;BME280;73000;51.784;4.660;2023-11-19T12:23:04;101012.47;;;14.77;73.70
83118;BME280;73000;51.784;4.660;2023-11-19T12:25:34;101038.28;;;15.05;73.16
83118;BME280;73000;51.784;4.660;2023-11-19T12:28:00;101014.88;;;15.06;72.63
83118;BME280;73000;51.784;4.660;2023-11-19T12:30:26;101016.94;;;15.00;72.87
83118;BME280;73000;51.784;4.660;2023-11-19T12:32:52;101025.31;;;15.00;73.41
83118;BME280;73000;51.784;4.660;2023-11-19T12:35:22;101026.31;;;15.04;73.33
83118;BME280;73000;51.784;4.660;2023-11-19T12:37:49;101028.63;;;15.02;72.99
83118;BME280;73000;51.784;4.660;2023-11-19T12:40:24;101032.53;;;15.01;73.71
83118;BME280;73000;51.784;4.660;2023-11-19T12:42:55;101012.53;;;14.99;72.93
83118;BME280;73000;51.784;4.660;2023-11-19T12:45:20;101017.66;;;15.06;72.63
83118;BME280;73000;51.784;4.660;2023-11-19T12:47:47;101028.03;;;14.92;73.10
83118;BME280;73000;51.784;4.660;2023-11-19T12:50:13;101006.50;;;14.84;71.82
83118;BME280;73000;51.784;4.660;2023-11-19T12:52:39;101002.13;;;14.91;72.36
83118;BME280;73000;51.784;4.660;2023-11-19T12:55:06;101006.69;;;14.87;72.63
83118;BME280;73000;51.784;4.660;2023-11-19T12:57:48;101008.50;;;15.05;73.47
83118;BME280;73000;51.784;4.660;2023-11-19T13:00:21;101012.66;;;14.94;73.53
83118;BME280;73000;51.784;4.660;2023-11-19T13:02:49;101023.25;;;14.92;73.17